createdAt,value
2019-04-01T00:05:57.823Z,47.2
2019-04-01T00:21:10.323Z,46.6
2019-04-01T00:36:23.011Z,44.6
2019-04-01T00:51:25.438Z,43.2
2019-04-01T01:06:48.193Z,40.4
2019-04-01T01:22:00.799Z,40.6
2019-04-01T01:37:13.298Z,38.9
2019-04-01T01:52:25.735Z,39.1
2019-04-01T02:07:36.441Z,38.8
2019-04-01T02:22:50.135Z,39.6
2019-04-01T02:38:02.275Z,38.8
2019-04-01T02:53:14.423Z,39.1
2019-04-01T03:08:19.177Z,39
2019-04-01T03:23:38.475Z,39.1
2019-04-01T03:38:50.663Z,40.3
2019-04-01T03:54:02.536Z,41
2019-04-01T04:09:14.522Z,41.5
2019-04-01T04:24:26.448Z,41.5
2019-04-01T04:39:38.285Z,41.3
2019-04-01T04:54:50.111Z,42.7
2019-04-01T05:10:01.925Z,42.6
2019-04-01T05:25:10.072Z,43.9
2019-04-01T05:40:25.666Z,41.8
2019-04-01T05:55:37.620Z,42
2019-04-01T06:10:49.494Z,41.5
2019-04-01T06:25:54.738Z,35.5
2019-04-01T06:41:13.820Z,31.3
2019-04-01T06:56:26.347Z,28.4
2019-04-01T07:11:39.183Z,27
2019-04-01T07:26:51.619Z,26.6
2019-04-01T07:42:04.258Z,27.1
2019-04-01T07:57:17.084Z,27.8
2019-04-01T08:12:21.494Z,27.9
2019-04-01T08:27:43.327Z,28.1
2019-04-01T08:42:56.933Z,27.4
2019-04-01T08:58:10.609Z,25.9
2019-04-01T09:13:12.923Z,24.9
2019-04-01T09:28:38.848Z,24
2019-04-01T09:43:53.292Z,21.9
2019-04-01T09:59:08.092Z,21.2
2019-04-01T10:14:23.237Z,20.4
2019-04-01T10:29:32.261Z,19.7
2019-04-01T10:44:54.359Z,18.1
2019-04-01T11:00:10.631Z,17.2
2019-04-01T11:15:27.031Z,16.4
2019-04-01T11:30:44.114Z,15.1
2019-04-01T11:45:53.933Z,14.6
2019-04-01T12:01:18.805Z,14.7
2019-04-01T12:16:36.511Z,14.6
2019-04-01T12:31:54.594Z,14
2019-04-01T12:47:13.015Z,13.9
2019-04-01T13:02:20.185Z,13.5
2019-04-01T13:17:46.165Z,13.5
2019-04-01T13:33:08.976Z,12.8
2019-04-01T13:48:28.573Z,11.8
2019-04-01T14:03:47.372Z,12.4
2019-04-01T14:19:06.440Z,12.3
2019-04-01T14:34:22.531Z,12.5
2019-04-01T14:49:39.716Z,12.3
2019-04-01T15:05:05.167Z,13.2
2019-04-01T15:20:21.576Z,13.6
2019-04-01T15:35:39.901Z,13.4
2019-04-01T15:50:57.950Z,13.8
2019-04-01T16:06:03.393Z,13.4
2019-04-01T16:21:31.814Z,14.5
2019-04-01T16:36:50.851Z,15.8
2019-04-01T16:52:08.697Z,16.3
2019-04-01T17:07:26.744Z,15.4
2019-04-01T17:22:43.804Z,14.9
2019-04-01T17:37:53.582Z,19.2
2019-04-01T17:53:14.592Z,19.1
2019-04-01T18:08:29.175Z,19.8
2019-04-01T18:23:43.235Z,20.4
2019-04-01T18:38:46.488Z,22.2
2019-04-01T18:54:11.527Z,22.9
2019-04-01T19:09:25.146Z,22.5
2019-04-01T19:24:38.810Z,23.2
2019-04-01T19:39:52.823Z,22.7
2019-04-01T19:55:03.781Z,25.5
2019-04-01T20:10:20.392Z,20.1
2019-04-01T20:25:34.247Z,21.6
2019-04-01T20:40:47.787Z,22.7
2019-04-01T20:55:51.489Z,23.4
2019-04-01T21:11:14.459Z,24.1
2019-04-01T21:26:28.038Z,24.7
2019-04-01T21:41:40.615Z,25.2
2019-04-01T21:56:53.632Z,26
2019-04-01T22:12:03.964Z,26.4
2019-04-01T22:27:19.792Z,26.9
2019-04-01T22:42:32.497Z,27.4
2019-04-01T22:57:45.332Z,27.1
2019-04-01T23:12:49.068Z,27.8
2019-04-01T23:28:10.708Z,28.4
2019-04-01T23:43:23.392Z,29.1
2019-04-01T23:58:36.091Z,29.8
